createdAt,value
2019-05-29T00:01:54.276Z,11.14
2019-05-29T00:04:23.515Z,11.30
2019-05-29T00:06:52.697Z,11.32
2019-05-29T00:09:22.292Z,11.44
2019-05-29T00:11:51.622Z,11.47
2019-05-29T00:14:27.173Z,11.55
2019-05-29T00:16:52.847Z,11.53
2019-05-29T00:19:22.089Z,11.63
2019-05-29T00:21:51.654Z,11.57
2019-05-29T00:24:21.149Z,11.56
2019-05-29T00:26:52.214Z,11.65
2019-05-29T00:29:21.809Z,11.62
2019-05-29T00:32:11.909Z,11.61
2019-05-29T00:34:41.210Z,11.45
2019-05-29T00:37:10.525Z,11.54
2019-05-29T00:39:39.976Z,11.60
2019-05-29T00:42:09.202Z,11.49
2019-05-29T00:44:38.387Z,11.45
2019-05-29T00:47:07.619Z,11.47
2019-05-29T00:49:36.804Z,11.54
2019-05-29T00:52:06.052Z,11.59
2019-05-29T00:54:35.241Z,11.59
2019-05-29T00:57:05.512Z,11.54
2019-05-29T00:59:34.696Z,11.54
2019-05-29T01:02:04.347Z,11.42
2019-05-29T01:04:33.502Z,11.40
2019-05-29T01:07:02.780Z,11.43
2019-05-29T01:09:32.260Z,11.29
2019-05-29T01:12:01.499Z,11.31
2019-05-29T01:14:30.683Z,11.37
2019-05-29T01:16:59.990Z,11.38
2019-05-29T01:19:29.187Z,11.35
2019-05-29T01:21:58.389Z,11.27
2019-05-29T01:24:28.015Z,11.40
2019-05-29T01:26:57.610Z,11.45
2019-05-29T01:29:27.263Z,11.49
2019-05-29T01:34:46.326Z,11.61
2019-05-29T01:37:16.119Z,11.61
2019-05-29T01:39:46.484Z,11.68
2019-05-29T01:42:15.668Z,11.64
2019-05-29T01:44:44.924Z,11.68
2019-05-29T01:47:15.342Z,11.71
2019-05-29T01:49:45.393Z,11.60
2019-05-29T01:52:15.519Z,11.64
2019-05-29T01:54:45.928Z,11.74
2019-05-29T01:57:15.759Z,11.59
2019-05-29T01:59:46.146Z,11.54
2019-05-29T02:02:15.757Z,11.53
2019-05-29T02:04:46.752Z,11.63
2019-05-29T02:07:15.941Z,11.57
2019-05-29T02:09:45.128Z,11.56
2019-05-29T02:12:14.383Z,11.50
2019-05-29T02:14:43.583Z,11.50
2019-05-29T02:17:12.896Z,11.54
2019-05-29T02:19:42.099Z,11.46
2019-05-29T02:22:11.613Z,11.43
2019-05-29T02:24:40.808Z,11.41
2019-05-29T02:27:10.057Z,11.32
2019-05-29T02:29:39.623Z,11.40
2019-05-29T02:32:08.869Z,11.41
2019-05-29T02:34:38.062Z,11.39
2019-05-29T02:37:07.306Z,11.39
2019-05-29T02:39:36.627Z,11.31
2019-05-29T02:42:06.219Z,11.31
2019-05-29T02:44:35.407Z,11.31
2019-05-29T02:47:04.647Z,11.29
2019-05-29T02:49:34.284Z,11.28
2019-05-29T02:52:03.519Z,11.37
2019-05-29T02:54:33.023Z,11.32
2019-05-29T02:57:02.641Z,11.40
2019-05-29T02:59:32.232Z,11.44
2019-05-29T03:02:02.826Z,11.33
2019-05-29T03:04:33.053Z,11.29
2019-05-29T03:07:42.992Z,11.28
2019-05-29T03:13:20.878Z,11.25
2019-05-29T03:16:08.771Z,11.31
2019-05-29T03:18:21.392Z,11.26
2019-05-29T03:20:50.921Z,11.26
2019-05-29T03:23:20.229Z,11.39
2019-05-29T03:25:49.752Z,11.34
2019-05-29T03:28:18.993Z,11.39
2019-05-29T03:30:48.189Z,11.43
2019-05-29T03:33:17.444Z,11.53
2019-05-29T03:35:48.487Z,11.65
2019-05-29T03:38:17.555Z,11.61
2019-05-29T03:40:47.172Z,11.56
2019-05-29T03:43:16.353Z,11.49
2019-05-29T03:45:45.600Z,11.37
2019-05-29T03:48:14.792Z,11.37
2019-05-29T03:50:44.039Z,11.41
2019-05-29T03:53:13.227Z,11.41
2019-05-29T03:55:42.476Z,11.33
2019-05-29T03:58:11.667Z,11.32
2019-05-29T04:00:46.038Z,11.42
2019-05-29T04:03:12.199Z,11.41
2019-05-29T04:05:41.449Z,11.52
2019-05-29T04:08:10.647Z,11.51
2019-05-29T04:11:19.258Z,11.56
2019-05-29T04:13:48.844Z,11.59
2019-05-29T04:22:32.870Z,11.67
2019-05-29T04:25:43.063Z,11.75
2019-05-29T04:28:12.665Z,11.89
2019-05-29T04:30:41.907Z,11.96
2019-05-29T04:33:11.107Z,12.04
2019-05-29T04:35:40.362Z,12.18
2019-05-29T04:38:09.544Z,12.12
2019-05-29T04:40:39.579Z,12.02
2019-05-29T04:43:09.705Z,12.04
2019-05-29T04:45:40.147Z,12.12
2019-05-29T04:48:10.549Z,12.11
2019-05-29T04:50:40.608Z,12.14
2019-05-29T04:53:10.709Z,12.05
2019-05-29T04:55:40.031Z,12.09
2019-05-29T04:58:09.271Z,12.02
2019-05-29T05:00:39.363Z,11.99
2019-05-29T05:03:09.422Z,11.99
2019-05-29T05:05:39.576Z,12.12
2019-05-29T05:08:09.623Z,12.00
2019-05-29T05:10:41.128Z,11.68
2019-05-29T05:13:10.486Z,11.68
2019-05-29T05:15:40.248Z,11.76
2019-05-29T05:18:50.171Z,11.87
2019-05-29T05:21:19.359Z,11.98
2019-05-29T05:23:48.604Z,11.90
2019-05-29T05:26:17.909Z,11.96
2019-05-29T05:28:47.458Z,12.10
2019-05-29T05:31:18.241Z,12.09
2019-05-29T05:33:47.481Z,12.11
2019-05-29T05:36:17.045Z,12.19
2019-05-29T05:38:46.294Z,12.26
2019-05-29T05:41:15.486Z,12.33
2019-05-29T05:43:44.678Z,12.39
2019-05-29T05:46:13.918Z,12.48
2019-05-29T05:48:43.113Z,12.69
2019-05-29T05:51:12.360Z,12.91
2019-05-29T05:53:41.962Z,13.02
2019-05-29T05:56:11.237Z,13.09
2019-05-29T05:58:40.416Z,13.00
2019-05-29T06:01:09.654Z,12.62
2019-05-29T06:06:48.169Z,12.42
2019-05-29T06:09:17.355Z,12.53
2019-05-29T06:11:46.597Z,12.64
2019-05-29T06:14:16.111Z,12.67
2019-05-29T06:16:45.346Z,12.77
2019-05-29T06:19:14.593Z,12.61
2019-05-29T06:21:44.390Z,12.77
2019-05-29T06:24:13.697Z,12.94
2019-05-29T06:26:43.099Z,12.97
2019-05-29T06:29:12.626Z,13.01
2019-05-29T06:32:00.883Z,13.00
2019-05-29T06:34:30.528Z,13.11
2019-05-29T06:37:00.425Z,12.96
2019-05-29T06:39:30.029Z,12.98
2019-05-29T06:41:59.373Z,13.08
2019-05-29T06:44:28.570Z,13.09
2019-05-29T06:46:58.169Z,13.05
2019-05-29T06:49:27.800Z,13.21
2019-05-29T06:51:57.797Z,13.45
2019-05-29T06:54:27.595Z,13.62
2019-05-29T06:56:57.205Z,13.86
2019-05-29T06:59:26.690Z,14.09
2019-05-29T07:01:56.731Z,14.25
2019-05-29T07:04:25.913Z,14.31
2019-05-29T07:06:55.510Z,14.46
2019-05-29T07:09:25.019Z,14.34
2019-05-29T07:11:54.256Z,14.40
2019-05-29T07:14:23.459Z,14.60
2019-05-29T07:16:56.186Z,14.85
2019-05-29T07:19:26.809Z,15.06
2019-05-29T07:21:55.100Z,15.23
2019-05-29T07:24:24.300Z,15.32
2019-05-29T07:26:53.549Z,15.38
2019-05-29T07:29:23.537Z,15.24
2019-05-29T07:31:52.791Z,15.19
2019-05-29T07:34:22.623Z,15.12
2019-05-29T07:36:52.263Z,15.14
2019-05-29T07:39:21.798Z,15.30
2019-05-29T07:41:51.163Z,15.29
2019-05-29T07:44:20.498Z,15.17
2019-05-29T07:46:49.801Z,15.24
2019-05-29T07:49:19.016Z,15.44
2019-05-29T07:51:48.824Z,15.77
2019-05-29T07:54:19.208Z,15.89
2019-05-29T07:56:48.705Z,15.92
2019-05-29T07:59:19.480Z,15.91
2019-05-29T08:01:49.311Z,15.89
2019-05-29T08:04:20.063Z,15.82
2019-05-29T08:06:54.231Z,15.88
2019-05-29T08:09:20.366Z,16.04
2019-05-29T08:11:50.126Z,15.95
2019-05-29T08:14:20.532Z,15.36
2019-05-29T08:16:50.166Z,15.04
2019-05-29T08:19:20.755Z,14.90
2019-05-29T08:21:50.606Z,15.09
2019-05-29T08:24:24.718Z,15.20
2019-05-29T08:26:52.323Z,15.18
2019-05-29T08:29:21.573Z,15.34
2019-05-29T08:31:51.030Z,15.50
2019-05-29T08:34:21.689Z,15.50
2019-05-29T08:37:10.011Z,15.60
2019-05-29T08:39:39.247Z,15.66
2019-05-29T08:42:22.500Z,15.74
2019-05-29T08:44:39.404Z,15.84
2019-05-29T08:47:10.857Z,15.95
2019-05-29T08:49:39.579Z,15.95
2019-05-29T08:55:02.662Z,15.99
2019-05-29T08:57:32.209Z,15.91
2019-05-29T09:00:01.725Z,16.01
2019-05-29T09:02:30.991Z,15.95
2019-05-29T09:05:00.252Z,16.05
2019-05-29T09:07:50.051Z,16.13
2019-05-29T09:10:19.776Z,16.11
2019-05-29T09:12:56.759Z,16.27
2019-05-29T09:15:59.365Z,16.39
2019-05-29T09:18:28.634Z,16.46
2019-05-29T09:21:03.333Z,16.53
2019-05-29T09:23:28.874Z,16.43
2019-05-29T09:26:13.634Z,16.65
2019-05-29T09:28:27.997Z,16.77
2019-05-29T09:30:57.192Z,16.64
2019-05-29T09:33:33.248Z,16.52
2019-05-29T09:36:02.856Z,16.47
2019-05-29T09:38:32.148Z,16.48
2019-05-29T09:41:01.423Z,16.71
2019-05-29T09:43:31.026Z,16.86
2019-05-29T09:46:02.381Z,16.97
2019-05-29T09:51:20.596Z,17.05
2019-05-29T09:53:38.403Z,17.01
2019-05-29T09:56:07.601Z,16.94
2019-05-29T09:58:37.259Z,16.92
2019-05-29T10:01:22.264Z,16.90
2019-05-29T10:03:38.576Z,16.97
2019-05-29T10:06:09.492Z,16.89
2019-05-29T10:08:39.496Z,16.97
2019-05-29T10:11:10.832Z,17.02
2019-05-29T10:13:40.171Z,17.05
2019-05-29T10:16:09.401Z,17.12
2019-05-29T10:18:38.752Z,17.12
2019-05-29T10:21:08.234Z,17.11
2019-05-29T10:23:37.441Z,17.03
2019-05-29T10:26:06.708Z,17.12
2019-05-29T10:28:50.173Z,17.21
2019-05-29T10:31:06.963Z,17.19
2019-05-29T10:33:36.551Z,17.14
2019-05-29T10:36:05.840Z,17.06
2019-05-29T10:38:35.383Z,16.73
2019-05-29T10:41:07.154Z,16.83
2019-05-29T10:43:35.976Z,16.92
2019-05-29T10:46:05.311Z,17.01
2019-05-29T10:48:34.862Z,17.23
2019-05-29T10:51:04.119Z,17.39
2019-05-29T10:53:33.783Z,17.37
2019-05-29T10:56:03.858Z,17.36
2019-05-29T10:58:48.061Z,17.36
2019-05-29T11:01:04.076Z,17.49
2019-05-29T11:03:33.321Z,17.65
2019-05-29T11:06:02.530Z,17.76
2019-05-29T11:08:31.780Z,17.92
2019-05-29T11:11:20.099Z,18.21
2019-05-29T11:13:50.525Z,18.21
2019-05-29T11:16:40.099Z,18.39
2019-05-29T11:19:10.618Z,18.39
2019-05-29T11:21:39.861Z,18.42
2019-05-29T11:24:49.939Z,18.46
2019-05-29T11:27:19.403Z,18.63
2019-05-29T11:29:48.797Z,18.53
2019-05-29T11:32:19.586Z,18.11
2019-05-29T11:34:49.040Z,18.21
2019-05-29T11:37:18.217Z,18.37
2019-05-29T11:39:47.422Z,18.49
2019-05-29T11:42:26.999Z,18.69
2019-05-29T11:44:47.712Z,18.66
2019-05-29T11:47:17.007Z,18.77
2019-05-29T11:49:46.194Z,18.96
2019-05-29T11:52:24.477Z,18.99
2019-05-29T11:54:47.307Z,19.08
2019-05-29T11:57:16.924Z,19.24
2019-05-29T11:59:46.148Z,19.22
2019-05-29T12:02:15.343Z,18.98
2019-05-29T12:04:45.019Z,19.03
2019-05-29T12:07:14.248Z,18.88
2019-05-29T12:09:43.496Z,18.99
2019-05-29T12:12:12.699Z,18.94
2019-05-29T12:14:59.071Z,18.81
2019-05-29T12:17:12.973Z,18.75
2019-05-29T12:19:42.276Z,18.61
2019-05-29T12:22:11.756Z,18.59
2019-05-29T12:24:40.997Z,18.55
2019-05-29T12:27:10.590Z,18.43
2019-05-29T12:29:40.201Z,18.37
2019-05-29T12:32:11.649Z,18.32
2019-05-29T12:37:14.900Z,18.04
2019-05-29T12:39:44.175Z,18.06
2019-05-29T12:42:13.359Z,18.00
2019-05-29T12:44:42.935Z,17.89
2019-05-29T12:47:31.263Z,17.39
2019-05-29T12:50:00.978Z,17.39
2019-05-29T12:52:31.436Z,17.32
2019-05-29T12:55:00.641Z,17.20
2019-05-29T12:57:30.216Z,17.05
2019-05-29T13:00:00.307Z,16.95
2019-05-29T13:05:45.437Z,16.65
2019-05-29T13:08:14.692Z,16.55
2019-05-29T13:10:43.950Z,16.42
2019-05-29T13:13:13.433Z,16.31
2019-05-29T13:15:42.973Z,16.29
2019-05-29T13:18:31.153Z,16.33
2019-05-29T13:21:00.961Z,16.33
2019-05-29T13:23:44.310Z,16.28
2019-05-29T13:26:03.683Z,16.11
2019-05-29T13:28:34.107Z,16.18
2019-05-29T13:31:04.593Z,16.26
2019-05-29T13:33:34.967Z,16.37
2019-05-29T13:36:04.591Z,16.40
2019-05-29T13:38:36.207Z,16.51
2019-05-29T13:41:07.749Z,16.56
2019-05-29T13:43:38.451Z,16.59
2019-05-29T13:46:07.713Z,16.69
2019-05-29T13:48:37.362Z,16.70
2019-05-29T13:51:07.379Z,16.80
2019-05-29T13:56:11.835Z,16.94
2019-05-29T13:58:41.077Z,17.03
2019-05-29T14:01:10.323Z,17.15
2019-05-29T14:03:39.563Z,17.07
2019-05-29T14:06:09.547Z,17.11
2019-05-29T14:08:39.727Z,17.06
2019-05-29T14:11:09.137Z,17.02
2019-05-29T14:13:39.935Z,16.97
2019-05-29T14:16:09.287Z,16.94
2019-05-29T14:18:38.465Z,16.94
2019-05-29T14:21:09.256Z,16.99
2019-05-29T14:23:39.924Z,17.12
2019-05-29T14:26:10.082Z,17.22
2019-05-29T14:28:39.706Z,17.34
2019-05-29T14:31:10.036Z,17.39
2019-05-29T14:33:39.878Z,17.32
2019-05-29T14:36:09.516Z,17.37
2019-05-29T14:38:39.172Z,17.28
2019-05-29T14:41:09.821Z,17.08
2019-05-29T14:43:39.665Z,16.95
2019-05-29T14:46:10.178Z,16.85
2019-05-29T14:48:40.179Z,16.83
2019-05-29T14:51:10.602Z,16.81
2019-05-29T14:53:40.725Z,16.91
2019-05-29T14:56:10.638Z,17.04
2019-05-29T14:58:40.900Z,17.23
2019-05-29T15:01:11.275Z,17.40
2019-05-29T15:03:41.525Z,17.65
2019-05-29T15:06:11.726Z,17.91
2019-05-29T15:09:03.531Z,18.64
2019-05-29T15:11:32.803Z,18.64
2019-05-29T15:14:02.101Z,18.69
2019-05-29T15:16:50.399Z,18.90
2019-05-29T15:19:31.308Z,18.91
2019-05-29T15:22:00.611Z,18.91
2019-05-29T15:24:29.802Z,18.45
2019-05-29T15:26:59.411Z,18.41
2019-05-29T15:29:28.599Z,18.19
2019-05-29T15:32:10.346Z,18.08
2019-05-29T15:34:29.126Z,17.92
2019-05-29T15:36:58.742Z,17.78
2019-05-29T15:39:28.258Z,17.61
2019-05-29T15:41:57.488Z,17.63
2019-05-29T15:44:27.072Z,17.58
2019-05-29T15:46:56.350Z,17.50
2019-05-29T15:49:25.526Z,17.40
2019-05-29T15:51:54.772Z,17.32
2019-05-29T15:54:23.986Z,17.29
2019-05-29T15:56:53.228Z,17.23
2019-05-29T15:59:22.421Z,17.18
2019-05-29T16:01:51.679Z,17.19
2019-05-29T16:04:20.878Z,17.16
2019-05-29T16:06:50.136Z,17.11
2019-05-29T16:09:19.389Z,17.05
2019-05-29T16:11:48.592Z,17.01
2019-05-29T16:14:19.033Z,16.99
2019-05-29T16:16:48.781Z,16.80
2019-05-29T16:19:18.439Z,16.79
2019-05-29T16:21:47.687Z,16.75
2019-05-29T16:24:17.292Z,16.75
2019-05-29T16:26:46.483Z,16.61
2019-05-29T16:31:55.484Z,16.44
2019-05-29T16:34:24.732Z,16.39
2019-05-29T16:36:53.918Z,16.30
2019-05-29T16:39:42.246Z,16.23
2019-05-29T16:42:11.947Z,16.17
2019-05-29T16:44:42.715Z,16.11
2019-05-29T16:47:12.483Z,16.10
2019-05-29T16:49:43.249Z,16.02
2019-05-29T16:52:12.891Z,15.98
2019-05-29T16:54:43.632Z,16.05
2019-05-29T16:57:13.433Z,16.10
2019-05-29T16:59:42.638Z,16.13
2019-05-29T17:02:13.529Z,16.16
2019-05-29T17:04:42.824Z,16.20
2019-05-29T17:07:12.083Z,16.19
2019-05-29T17:09:41.293Z,16.16
2019-05-29T17:12:10.534Z,15.93
2019-05-29T17:14:39.738Z,15.95
2019-05-29T17:17:09.003Z,15.97
2019-05-29T17:20:18.718Z,16.01
2019-05-29T17:22:48.931Z,16.03
2019-05-29T17:25:18.925Z,16.05
2019-05-29T17:27:49.140Z,16.03
2019-05-29T17:31:01.787Z,16.03
2019-05-29T17:36:03.561Z,15.94
2019-05-29T17:38:33.152Z,15.82
2019-05-29T17:41:02.700Z,15.85
2019-05-29T17:43:32.557Z,15.84
2019-05-29T17:46:01.790Z,15.84
2019-05-29T17:48:31.161Z,15.85
2019-05-29T17:51:00.355Z,15.83
2019-05-29T17:53:30.109Z,15.81
2019-05-29T17:55:59.418Z,15.83
2019-05-29T17:58:28.664Z,15.88
2019-05-29T18:00:57.866Z,15.91
2019-05-29T18:03:27.103Z,15.83
2019-05-29T18:05:56.732Z,15.77
2019-05-29T18:08:26.948Z,15.74
2019-05-29T18:10:57.314Z,15.73
2019-05-29T18:13:27.443Z,15.76
2019-05-29T18:15:57.549Z,15.72
2019-05-29T18:18:27.839Z,15.71
2019-05-29T18:20:58.614Z,15.65
2019-05-29T18:23:28.222Z,15.68
2019-05-29T18:25:59.187Z,15.70
2019-05-29T18:28:28.402Z,15.73
2019-05-29T18:30:57.618Z,15.77
2019-05-29T18:33:26.862Z,15.77
2019-05-29T18:35:56.735Z,15.65
2019-05-29T18:38:26.468Z,15.66
2019-05-29T18:40:57.645Z,15.61
2019-05-29T18:43:27.058Z,15.56
2019-05-29T18:45:56.320Z,15.58
2019-05-29T18:48:25.515Z,15.60
2019-05-29T18:51:13.692Z,15.60
2019-05-29T18:53:42.886Z,15.63
2019-05-29T18:56:12.135Z,15.54
2019-05-29T18:58:41.595Z,15.49
2019-05-29T19:01:10.847Z,15.54
2019-05-29T19:03:40.633Z,15.47
2019-05-29T19:06:31.853Z,15.43
2019-05-29T19:09:01.765Z,15.53
2019-05-29T19:11:31.991Z,15.61
2019-05-29T19:14:03.163Z,15.58
2019-05-29T19:16:32.459Z,15.55
2019-05-29T19:19:01.665Z,15.46
2019-05-29T19:21:30.980Z,15.45
2019-05-29T19:24:00.586Z,15.50
2019-05-29T19:26:33.684Z,15.45
2019-05-29T19:29:00.798Z,15.48
2019-05-29T19:34:18.685Z,15.46
2019-05-29T19:36:47.887Z,15.44
2019-05-29T19:39:17.463Z,15.36
2019-05-29T19:41:46.677Z,15.32
2019-05-29T19:44:18.183Z,15.33
2019-05-29T19:46:53.804Z,15.35
2019-05-29T19:49:19.405Z,15.29
2019-05-29T19:51:48.608Z,15.26
2019-05-29T19:54:18.179Z,15.29
2019-05-29T19:56:47.687Z,15.21
2019-05-29T19:59:17.287Z,15.24
2019-05-29T20:01:46.494Z,15.24
2019-05-29T20:04:15.793Z,15.25
2019-05-29T20:06:44.989Z,15.18
2019-05-29T20:09:14.242Z,15.17
2019-05-29T20:11:43.445Z,15.16
2019-05-29T20:16:48.441Z,15.13
2019-05-29T20:19:17.688Z,15.10
2019-05-29T20:21:47.413Z,15.13
2019-05-29T20:24:16.681Z,15.05
2019-05-29T20:26:46.243Z,15.09
2019-05-29T20:29:15.461Z,15.11
2019-05-29T20:31:44.712Z,15.00
2019-05-29T20:34:13.912Z,14.90
2019-05-29T20:36:43.548Z,14.88
2019-05-29T20:39:12.765Z,14.91
2019-05-29T20:41:43.541Z,15.01
2019-05-29T20:44:12.974Z,15.00
2019-05-29T20:46:42.802Z,14.98
2019-05-29T20:49:13.188Z,15.01
2019-05-29T20:51:42.467Z,14.91
2019-05-29T20:59:58.741Z,14.96
2019-05-29T21:02:28.010Z,14.97
2019-05-29T21:04:57.609Z,14.97
2019-05-29T21:07:27.607Z,14.96
2019-05-29T21:09:56.811Z,14.99
2019-05-29T21:12:26.069Z,14.97
2019-05-29T21:14:55.645Z,14.93
2019-05-29T21:17:25.290Z,14.92
2019-05-29T21:19:54.978Z,14.73
2019-05-29T21:22:24.255Z,14.73
2019-05-29T21:25:01.873Z,14.54
2019-05-29T21:27:24.469Z,14.60
2019-05-29T21:29:54.142Z,14.54
2019-05-29T21:32:23.417Z,14.49
2019-05-29T21:34:52.750Z,14.48
2019-05-29T21:37:22.381Z,14.64
2019-05-29T21:39:51.597Z,14.74
2019-05-29T21:42:20.868Z,14.68
2019-05-29T21:44:50.093Z,14.67
2019-05-29T21:47:20.277Z,14.50
2019-05-29T21:49:50.190Z,14.43
2019-05-29T21:52:19.711Z,14.47
2019-05-29T21:54:48.981Z,14.37
2019-05-29T21:57:18.246Z,14.29
2019-05-29T22:00:07.962Z,14.26
2019-05-29T22:02:38.255Z,14.10
2019-05-29T22:05:48.770Z,14.02
2019-05-29T22:08:19.231Z,14.13
2019-05-29T22:10:48.500Z,14.28
2019-05-29T22:13:17.740Z,14.38
2019-05-29T22:15:47.046Z,14.42
2019-05-29T22:18:16.317Z,14.41
2019-05-29T22:20:45.564Z,14.46
2019-05-29T22:25:49.483Z,14.50
2019-05-29T22:28:18.827Z,14.45
2019-05-29T22:30:48.391Z,14.45
2019-05-29T22:33:17.666Z,14.42
2019-05-29T22:35:46.885Z,14.45
2019-05-29T22:38:16.438Z,14.35
2019-05-29T22:40:45.641Z,14.27
2019-05-29T22:43:14.887Z,14.19
2019-05-29T22:45:44.079Z,14.18
2019-05-29T22:48:13.320Z,14.06
2019-05-29T22:50:42.515Z,13.96
2019-05-29T22:53:12.521Z,13.79
2019-05-29T22:55:41.708Z,13.70
2019-05-29T22:58:11.220Z,13.59
2019-05-29T23:00:40.805Z,13.55
2019-05-29T23:03:10.361Z,13.47
2019-05-29T23:05:39.612Z,13.38
2019-05-29T23:08:08.810Z,13.45
2019-05-29T23:10:38.062Z,13.44
2019-05-29T23:13:07.535Z,13.16
2019-05-29T23:15:37.442Z,13.27
2019-05-29T23:18:06.631Z,13.25
2019-05-29T23:20:35.910Z,13.20
2019-05-29T23:23:05.087Z,13.22
2019-05-29T23:25:34.324Z,13.11
2019-05-29T23:28:03.540Z,13.15
2019-05-29T23:30:33.184Z,13.01
2019-05-29T23:33:03.396Z,13.02
2019-05-29T23:35:33.326Z,12.82
2019-05-29T23:38:03.477Z,12.78
2019-05-29T23:40:33.767Z,12.80
2019-05-29T23:45:38.091Z,12.81
2019-05-29T23:48:07.274Z,12.91
2019-05-29T23:50:36.444Z,12.86
2019-05-29T23:53:05.960Z,12.91
2019-05-29T23:55:35.150Z,12.90
2019-05-29T23:58:08.197Z,12.79
